AirNav   Everest Fuels
 
 916 users online  

4PN6 Williams Grove Heliport
Mechanicsburg, Pennsylvania, USA

GOING TO MECHANICSBURG?


FAA INFORMATION EFFECTIVE 30 JANUARY 2020

Location

FAA Identifier: 4PN6
Lat/Long: 40-09-00.3280N 077-01-58.9190W
40-09.005467N 077-01.981983W
40.1500911,-77.0330331
(estimated)
Elevation: 510 ft. / 155 m (estimated)
Variation: 10W (1985)
From city: 6 miles SW of MECHANICSBURG, PA
Time zone: UTC -5 (UTC -4 during Daylight Saving Time)
Zip code: 17055

Heliport Operations

Heliport use: Private use. Permission required prior to landing
Activation date: 03/1977
Control tower: no
ARTCC: NEW YORK CENTER
FSS: WILLIAMSPORT FLIGHT SERVICE STATION
Attendance: UNATNDD
Wind indicator: yes
Segmented circle: yes

Heliport Communications

WX ASOS at CXY (9 nm NE): PHONE 717-770-0880
WX ASOS at MDT (13 nm E): 118.8 (717-944-1372)
WX ASOS at THV (16 nm SE): 119.275 (717-792-5529)

Nearby radio navigation aids

VOR radial/distance  VOR name  Freq  Var
HARr180/9.3HARRISBURG VORTAC112.5010W
RAVr230/31.3RAVINE VORTAC114.6011W
LRPr282/34.1LANCASTER VOR/DME117.3009W
SEGr198/39.0SELINSGROVE VOR/DME110.4008W
EMIr004/39.4WESTMINSTER VORTAC117.9008W

 
NDB name  Hdg/Dist  Freq  Var  ID
LATLE228/2.121911WCX -.-. -..-
ENOLA237/8.420411WMD -- -..
BELLGROVE242/27.932810WBZJ -... --.. .---

Heliport Services

Airframe service: NONE
Powerplant service: NONE
Bottled oxygen: NONE
Bulk oxygen: NONE

Runway Information

Helipad H1

Dimensions: 100 x 100 ft. / 30 x 30 m
Surface: dirt, in fair condition
Latitude: 40-09.005467N
Longitude: 077-01.981983W
Elevation: 510.0 ft.
Traffic pattern: leftleft
Markings: none, in fair condition
Runway end identifier lights: no

Heliport Ownership and Management from official FAA records

Ownership: Privately-owned
Owner: WILLIAMS GROVE INC
1 PARK AVE
MECHANICSBURG, PA 17055
Phone 717-697-8266
Manager: MORGAN HUGHES
1 PARK AVE
MECHANICSBURG, PA 17055
Phone 717-697-8266

Additional Remarks

FOR CD CTC HARRISBURG APCH AT 800-932-0712.

Instrument Procedures

There are no published instrument procedures at 4PN6.

Some nearby airports with instrument procedures:

N94 - Carlisle Airport (7 nm W)
KCXY - Capital City Airport (9 nm NE)
KMDT - Harrisburg International Airport (13 nm E)
KTHV - York Airport (16 nm SE)
N71 - Donegal Springs Airpark (21 nm E)
 
Loc | Ops | Rwys | IFR | FBO | Links
Com | Nav | Svcs | Stats | Notes
Area around 4PN6 (Williams Grove Heliport)
 
Road maps at: MapQuest Bing Google
 
Aerial photo
No photo
 
Sectional chart

 
Airport distance calculator
Flying to Williams Grove Heliport? Find the distance to fly.

From to 4PN6

Sunrise and sunset
Times for 25-Feb-2020
 Local
(UTC-5)
 Zulu
(UTC)
Morning civil twilight06:2111:21
Sunrise06:4911:49
Sunset17:5422:54
Evening civil twilight18:2123:21

Current date and time
Zulu (UTC)  26-Feb-2020 04:43:30
Local (UTC-5)  25-Feb-2020 23:43:30
 
METAR
KCXY 
9nm NE 
260356Z AUTO 00000KT 1/2SM R08/2800V3500FT FG OVC003 09/07 A2987 RMK AO2 SLP118 T00890072
KMDT 
13nm E 
260414Z 00000KT 1/2SM R13/3000V4000FT FG VV003 08/07 A2987 RMK AO2 T00830072
KTHV 
16nm SE 
260353Z AUTO 00000KT 1/4SM FG VV002 07/07 A2987 RMK AO2 SLP118 T00720067
TAF
KMDT 
13nm E 
260326Z 2603/2624 28005KT 1/4SM FG BKN003 OVC009 FM261200 VRB03KT 1/2SM FG OVC004 FM261600 12006KT 4SM -SHRA BR OVC012 FM262200 16007KT 5SM -SHRA BR BKN020
NOTAMs
Click for the latest NOTAMs
NOTAMs are issued by the DoD/FAA and will open in a separate window not controlled by AirNav.

 

 
 

Would you like to see your business listed on this page?

 If your business provides an interesting product or service to pilots, flight crews, aircraft, or users of the Williams Grove Heliport, you should consider listing it here.  To start the listing process, click on the button below
 
Add a business
 

Other Pages about Williams Grove Heliport

Update a link
 
Copyright © AirNav, LLC. All rights reserved. Privacy Policy  Contact